Eye Of The Wind — GWAK — position and weather

sailwx.info

Track history (hours):
 
Tides and Currents Weather Stations Pressure Air Temp Water Temp Dewpoint Dewpoint Depression Visibility Wind Speed Wind Dir Waves Ship Positions

Eye Of The Wind

Last reported at 2020-Sep-24 15:55 UTC. Time now 2020-Sep-26 08:21 UTC.
Position N 53°31' E 008°08'.

Length 33 m; draft 2.8 m.

Type: Sailing vessel. MMSI: 233789000.

Date/timePositionNaut miles runAvg speedWind from/ knotsBaromVisibWave heightAir tempDewpointWater temp
2020-Sep-24 15:55N 53°31' E 008°08'1 1.7
2020-Sep-24 15:29N 53°31' E 008°09'6 3.9
2020-Sep-24 14:01N 53°37' E 008°09'26 2.3
2020-Sep-24 02:52N 53°53' E 008°43'29 5.4
2020-Sep-23 21:30N 53°43' E 009°29'10 6.6
2020-Sep-23 20:00N 53°35' E 009°38'3 5.3
2020-Sep-23 19:25N 53°34' E 009°44'0 4.7
2020-Sep-23 19:24N 53°34' E 009°44'2 4.5
2020-Sep-23 19:00N 53°34' E 009°47'4 1.0
2020-Sep-23 15:00N 53°34' E 009°40'7 7.0
2020-Sep-23 14:00N 53°39' E 009°31'10 4.8
2020-Sep-23 12:00N 53°47' E 009°23'25 0.9
2020-Sep-22 09:53N 54°11' E 009°31'2 6.5
2020-Sep-22 09:30N 54°12' E 009°34'7 4.0
2020-Sep-22 07:42N 54°19' E 009°41'0 1.5
2020-Sep-22 07:30N 54°18' E 009°40'0 0.0
2020-Sep-22 07:00N 54°18' E 009°40'0 0.0
2020-Sep-22 04:57N 54°18' E 009°40'0 0.0
2020-Sep-22 04:00N 54°18' E 009°40'0 0.0
2020-Sep-22 03:30N 54°18' E 009°40'0 0.0
2020-Sep-21 23:00N 54°18' E 009°40'0 0.0
2020-Sep-21 22:00N 54°18' E 009°40'0 0.0
2020-Sep-21 21:30N 54°18' E 009°40'0 0.0
2020-Sep-21 20:30N 54°18' E 009°40'0 0.0
2020-Sep-21 17:30N 54°18' E 009°40'2 1.0
2020-Sep-21 16:00N 54°19' E 009°43'11 5.7
2020-Sep-21 13:59N 54°22' E 010°02'7 2.0
2020-Sep-21 10:30N 54°25' E 010°12'16 5.1
2020-Sep-21 07:25N 54°40' E 010°03'3 0.2
2020-Sep-20 12:04N 54°38' E 010°07'0 2.7
2020-Sep-20 11:57N 54°38' E 010°08'5 3.3
2020-Sep-20 10:28N 54°34' E 010°11'7 3.4
2020-Sep-20 08:30N 54°27' E 010°14'6 3.8
2020-Sep-20 06:59N 54°22' E 010°09'0 0.0
2020-Sep-20 05:59N 54°22' E 010°09'0 0.0
2020-Sep-19 23:59N 54°22' E 010°09'0 0.0
2020-Sep-19 20:29N 54°22' E 010°09'0 0.0
2020-Sep-19 18:59N 54°22' E 010°09'0 0.0
2020-Sep-19 17:29N 54°22' E 010°09'0 0.0
2020-Sep-19 16:29N 54°22' E 010°09'0 0.0
2020-Sep-19 13:59N 54°22' E 010°09'0 0.0
2020-Sep-19 10:59N 54°22' E 010°09'0 0.0
2020-Sep-19 09:59N 54°22' E 010°09'0 0.0
2020-Sep-19 07:29N 54°22' E 010°09'0 0.0
2020-Sep-19 06:59N 54°22' E 010°09'0 0.0
2020-Sep-19 04:59N 54°22' E 010°09'0 0.0
2020-Sep-19 04:29N 54°22' E 010°09'0 0.0
2020-Sep-19 02:29N 54°22' E 010°09'0 0.0
2020-Sep-19 01:26N 54°22' E 010°09'0 0.0
2020-Sep-18 23:29N 54°22' E 010°09'0 0.0
2020-Sep-18 22:29N 54°22' E 010°09'0 0.0
2020-Sep-18 19:59N 54°22' E 010°09'0 0.0
2020-Sep-18 18:59N 54°22' E 010°09'0 0.0
2020-Sep-18 17:59N 54°22' E 010°09'0 0.0
2020-Sep-18 14:59N 54°22' E 010°09'0 0.0
2020-Sep-18 13:26N 54°22' E 010°09'8 2.7
2020-Sep-18 10:30N 54°30' E 010°12'24 0.9
2020-Sep-17 07:58N 54°51' E 010°31'0 0.0
2020-Sep-17 07:28N 54°51' E 010°31'0 0.0
2020-Sep-17 06:58N 54°51' E 010°31'0 0.0
2020-Sep-17 06:28N 54°51' E 010°31'0 0.0
2020-Sep-17 03:28N 54°51' E 010°31'0 0.0
2020-Sep-17 02:58N 54°51' E 010°31'0 0.0
2020-Sep-17 01:22N 54°51' E 010°31'0 0.0
2020-Sep-17 00:58N 54°51' E 010°31'0 0.0
2020-Sep-17 00:22N 54°51' E 010°31'0 0.0
2020-Sep-16 23:58N 54°51' E 010°31'0 0.0
2020-Sep-16 20:28N 54°51' E 010°31'0 0.0
2020-Sep-16 18:28N 54°51' E 010°31'0 0.0
2020-Sep-16 17:58N 54°51' E 010°31'0 0.0
2020-Sep-16 16:58N 54°51' E 010°31'0 0.0
2020-Sep-16 16:28N 54°51' E 010°31'3 0.7
2020-Sep-16 12:00N 54°49' E 010°29'18 2.0
2020-Sep-16 02:39N 55°03' E 010°10'11 0.7
2020-Sep-15 09:30N 55°02' E 010°29'5 2.4
2020-Sep-15 07:21N 55°04' E 010°37'0 0.0
2020-Sep-14 20:57N 55°04' E 010°37'0 0.0
2020-Sep-14 19:51N 55°04' E 010°37'  
Track history (hours):
 
Tides and Currents Weather Stations Pressure Air Temp Water Temp Dewpoint Dewpoint Depression Visibility Wind Speed Wind Dir Waves Ship Positions

Eye Of The Wind

Last reported at 2020-Sep-24 15:55 UTC. Time now 2020-Sep-26 08:21 UTC.
Position N 53°31' E 008°08'.

Length 33 m; draft 2.8 m.

Type: Sailing vessel. MMSI: 233789000.

Date/timePositionNaut miles runAvg speedWind from/ knotsBaromVisibWave heightAir tempDewpointWater temp
2020-Sep-24 15:55N 53°31' E 008°08'1 1.7
2020-Sep-24 15:29N 53°31' E 008°09'6 3.9
2020-Sep-24 14:01N 53°37' E 008°09'26 2.3
2020-Sep-24 02:52N 53°53' E 008°43'29 5.4
2020-Sep-23 21:30N 53°43' E 009°29'10 6.6
2020-Sep-23 20:00N 53°35' E 009°38'3 5.3
2020-Sep-23 19:25N 53°34' E 009°44'0 4.7
2020-Sep-23 19:24N 53°34' E 009°44'2 4.5
2020-Sep-23 19:00N 53°34' E 009°47'4 1.0
2020-Sep-23 15:00N 53°34' E 009°40'7 7.0
2020-Sep-23 14:00N 53°39' E 009°31'10 4.8
2020-Sep-23 12:00N 53°47' E 009°23'25 0.9
2020-Sep-22 09:53N 54°11' E 009°31'2 6.5
2020-Sep-22 09:30N 54°12' E 009°34'7 4.0
2020-Sep-22 07:42N 54°19' E 009°41'0 1.5
2020-Sep-22 07:30N 54°18' E 009°40'0 0.0
2020-Sep-22 07:00N 54°18' E 009°40'0 0.0
2020-Sep-22 04:57N 54°18' E 009°40'0 0.0
2020-Sep-22 04:00N 54°18' E 009°40'0 0.0
2020-Sep-22 03:30N 54°18' E 009°40'0 0.0
2020-Sep-21 23:00N 54°18' E 009°40'0 0.0
2020-Sep-21 22:00N 54°18' E 009°40'0 0.0
2020-Sep-21 21:30N 54°18' E 009°40'0 0.0
2020-Sep-21 20:30N 54°18' E 009°40'0 0.0
2020-Sep-21 17:30N 54°18' E 009°40'2 1.0
2020-Sep-21 16:00N 54°19' E 009°43'11 5.7
2020-Sep-21 13:59N 54°22' E 010°02'7 2.0
2020-Sep-21 10:30N 54°25' E 010°12'16 5.1
2020-Sep-21 07:25N 54°40' E 010°03'3 0.2
2020-Sep-20 12:04N 54°38' E 010°07'0 2.7
2020-Sep-20 11:57N 54°38' E 010°08'5 3.3
2020-Sep-20 10:28N 54°34' E 010°11'7 3.4
2020-Sep-20 08:30N 54°27' E 010°14'6 3.8
2020-Sep-20 06:59N 54°22' E 010°09'0 0.0
2020-Sep-20 05:59N 54°22' E 010°09'0 0.0
2020-Sep-19 23:59N 54°22' E 010°09'0 0.0
2020-Sep-19 20:29N 54°22' E 010°09'0 0.0
2020-Sep-19 18:59N 54°22' E 010°09'0 0.0
2020-Sep-19 17:29N 54°22' E 010°09'0 0.0
2020-Sep-19 16:29N 54°22' E 010°09'0 0.0
2020-Sep-19 13:59N 54°22' E 010°09'0 0.0
2020-Sep-19 10:59N 54°22' E 010°09'0 0.0
2020-Sep-19 09:59N 54°22' E 010°09'0 0.0
2020-Sep-19 07:29N 54°22' E 010°09'0 0.0
2020-Sep-19 06:59N 54°22' E 010°09'0 0.0
2020-Sep-19 04:59N 54°22' E 010°09'0 0.0
2020-Sep-19 04:29N 54°22' E 010°09'0 0.0
2020-Sep-19 02:29N 54°22' E 010°09'0 0.0
2020-Sep-19 01:26N 54°22' E 010°09'0 0.0
2020-Sep-18 23:29N 54°22' E 010°09'0 0.0
2020-Sep-18 22:29N 54°22' E 010°09'0 0.0
2020-Sep-18 19:59N 54°22' E 010°09'0 0.0
2020-Sep-18 18:59N 54°22' E 010°09'0 0.0
2020-Sep-18 17:59N 54°22' E 010°09'0 0.0
2020-Sep-18 14:59N 54°22' E 010°09'0 0.0
2020-Sep-18 13:26N 54°22' E 010°09'8 2.7
2020-Sep-18 10:30N 54°30' E 010°12'24 0.9
2020-Sep-17 07:58N 54°51' E 010°31'0 0.0
2020-Sep-17 07:28N 54°51' E 010°31'0 0.0
2020-Sep-17 06:58N 54°51' E 010°31'0 0.0
2020-Sep-17 06:28N 54°51' E 010°31'0 0.0
2020-Sep-17 03:28N 54°51' E 010°31'0 0.0
2020-Sep-17 02:58N 54°51' E 010°31'0 0.0
2020-Sep-17 01:22N 54°51' E 010°31'0 0.0
2020-Sep-17 00:58N 54°51' E 010°31'0 0.0
2020-Sep-17 00:22N 54°51' E 010°31'0 0.0
2020-Sep-16 23:58N 54°51' E 010°31'0 0.0
2020-Sep-16 20:28N 54°51' E 010°31'0 0.0
2020-Sep-16 18:28N 54°51' E 010°31'0 0.0
2020-Sep-16 17:58N 54°51' E 010°31'0 0.0
2020-Sep-16 16:58N 54°51' E 010°31'0 0.0
2020-Sep-16 16:28N 54°51' E 010°31'3 0.7
2020-Sep-16 12:00N 54°49' E 010°29'18 2.0
2020-Sep-16 02:39N 55°03' E 010°10'11 0.7
2020-Sep-15 09:30N 55°02' E 010°29'5 2.4
2020-Sep-15 07:21N 55°04' E 010°37'0 0.0
2020-Sep-14 20:57N 55°04' E 010°37'0 0.0
2020-Sep-14 19:51N 55°04' E 010°37'  

Dump ship's entire track history